sensor_id;sensor_type;location;lat;lon;timestamp;temperature;humidity
55207;DHT22;41079;52.856;6.534;2022-07-10T00:00:24;12.80;99.90
55207;DHT22;41079;52.856;6.534;2022-07-10T00:02:50;12.80;99.90
55207;DHT22;41079;52.856;6.534;2022-07-10T00:05:18;12.80;99.90
55207;DHT22;41079;52.856;6.534;2022-07-10T00:07:44;12.70;99.90
55207;DHT22;41079;52.856;6.534;2022-07-10T00:10:09;12.70;99.90
55207;DHT22;41079;52.856;6.534;2022-07-10T00:12:35;12.60;99.90
55207;DHT22;41079;52.856;6.534;2022-07-10T00:15:03;12.60;99.90
55207;DHT22;41079;52.856;6.534;2022-07-10T00:17:28;12.60;99.90
55207;DHT22;41079;52.856;6.534;2022-07-10T00:19:54;12.50;99.90
55207;DHT22;41079;52.856;6.534;2022-07-10T00:22:19;12.60;99.90
55207;DHT22;41079;52.856;6.534;2022-07-10T00:24:45;12.60;99.90
55207;DHT22;41079;52.856;6.534;2022-07-10T00:27:10;12.60;99.90
55207;DHT22;41079;52.856;6.534;2022-07-10T00:29:36;12.70;99.90
55207;DHT22;41079;52.856;6.534;2022-07-10T00:32:01;12.80;99.90
55207;DHT22;41079;52.856;6.534;2022-07-10T00:34:27;12.70;99.90
55207;DHT22;41079;52.856;6.534;2022-07-10T00:36:52;12.80;99.90
55207;DHT22;41079;52.856;6.534;2022-07-10T00:39:18;12.80;99.90
55207;DHT22;41079;52.856;6.534;2022-07-10T00:41:43;12.80;99.90
55207;DHT22;41079;52.856;6.534;2022-07-10T00:44:09;12.80;99.90
55207;DHT22;41079;52.856;6.534;2022-07-10T00:46:34;12.80;99.90
55207;DHT22;41079;52.856;6.534;2022-07-10T00:49:00;12.80;99.90
55207;DHT22;41079;52.856;6.534;2022-07-10T00:51:27;12.90;99.90
55207;DHT22;41079;52.856;6.534;2022-07-10T00:53:53;12.90;99.90
55207;DHT22;41079;52.856;6.534;2022-07-10T00:56:19;12.90;99.90
55207;DHT22;41079;52.856;6.534;2022-07-10T00:58:46;13.00;99.90
55207;DHT22;41079;52.856;6.534;2022-07-10T01:01:11;12.90;99.90
55207;DHT22;41079;52.856;6.534;2022-07-10T01:03:37;12.90;99.90
55207;DHT22;41079;52.856;6.534;2022-07-10T01:06:03;12.90;99.90
55207;DHT22;41079;52.856;6.534;2022-07-10T01:08:28;12.90;99.90
55207;DHT22;41079;52.856;6.534;2022-07-10T01:10:54;12.80;99.90
55207;DHT22;41079;52.856;6.534;2022-07-10T01:13:20;12.80;99.90
55207;DHT22;41079;52.856;6.534;2022-07-10T01:15:46;12.70;99.90
55207;DHT22;41079;52.856;6.534;2022-07-10T01:18:13;12.70;99.90
55207;DHT22;41079;52.856;6.534;2022-07-10T01:20:38;12.60;99.90
55207;DHT22;41079;52.856;6.534;2022-07-10T01:23:04;12.60;99.90
55207;DHT22;41079;52.856;6.534;2022-07-10T01:25:29;12.60;99.90
55207;DHT22;41079;52.856;6.534;2022-07-10T01:27:55;12.60;99.90
55207;DHT22;41079;52.856;6.534;2022-07-10T01:30:20;12.60;99.90
55207;DHT22;41079;52.856;6.534;2022-07-10T01:32:46;12.60;99.90
55207;DHT22;41079;52.856;6.534;2022-07-10T01:35:12;12.60;99.90
55207;DHT22;41079;52.856;6.534;2022-07-10T01:37:38;12.60;99.90
55207;DHT22;41079;52.856;6.534;2022-07-10T01:40:03;12.60;99.90
55207;DHT22;41079;52.856;6.534;2022-07-10T01:42:29;12.60;99.90
55207;DHT22;41079;52.856;6.534;2022-07-10T01:44:55;12.60;99.90
55207;DHT22;41079;52.856;6.534;2022-07-10T01:47:20;12.60;99.90
55207;DHT22;41079;52.856;6.534;2022-07-10T01:49:50;12.60;99.90
55207;DHT22;41079;52.856;6.534;2022-07-10T01:52:16;12.60;99.90
55207;DHT22;41079;52.856;6.534;2022-07-10T01:54:41;12.60;99.90
55207;DHT22;41079;52.856;6.534;2022-07-10T01:57:07;12.60;99.90
55207;DHT22;41079;52.856;6.534;2022-07-10T01:59:32;12.50;99.90
55207;DHT22;41079;52.856;6.534;2022-07-10T02:01:58;12.50;99.90
55207;DHT22;41079;52.856;6.534;2022-07-10T02:04:23;12.50;99.90
55207;DHT22;41079;52.856;6.534;2022-07-10T02:07:07;12.40;99.90
55207;DHT22;41079;52.856;6.534;2022-07-10T02:09:33;12.40;99.90
55207;DHT22;41079;52.856;6.534;2022-07-10T02:11:58;12.30;99.90
55207;DHT22;41079;52.856;6.534;2022-07-10T02:14:24;12.30;99.90
55207;DHT22;41079;52.856;6.534;2022-07-10T02:16:49;12.20;99.90
55207;DHT22;41079;52.856;6.534;2022-07-10T02:19:15;12.20;99.90
55207;DHT22;41079;52.856;6.534;2022-07-10T02:21:40;12.20;99.90
55207;DHT22;41079;52.856;6.534;2022-07-10T02:24:05;12.10;99.90
55207;DHT22;41079;52.856;6.534;2022-07-10T02:26:31;12.10;99.90
55207;DHT22;41079;52.856;6.534;2022-07-10T02:28:57;12.10;99.90
55207;DHT22;41079;52.856;6.534;2022-07-10T02:31:22;12.00;99.90
55207;DHT22;41079;52.856;6.534;2022-07-10T02:33:47;12.00;99.90
55207;DHT22;41079;52.856;6.534;2022-07-10T02:36:13;12.00;99.90
55207;DHT22;41079;52.856;6.534;2022-07-10T02:38:38;12.00;99.90
55207;DHT22;41079;52.856;6.534;2022-07-10T02:41:04;12.00;99.90
55207;DHT22;41079;52.856;6.534;2022-07-10T02:43:29;12.00;99.90
55207;DHT22;41079;52.856;6.534;2022-07-10T02:45:55;12.00;99.90
55207;DHT22;41079;52.856;6.534;2022-07-10T02:48:21;11.90;99.90
55207;DHT22;41079;52.856;6.534;2022-07-10T02:50:46;11.90;99.90
55207;DHT22;41079;52.856;6.534;2022-07-10T02:53:12;11.90;99.90
55207;DHT22;41079;52.856;6.534;2022-07-10T02:55:37;11.90;99.90
55207;DHT22;41079;52.856;6.534;2022-07-10T02:58:03;11.90;99.90
55207;DHT22;41079;52.856;6.534;2022-07-10T03:00:28;11.90;99.90
55207;DHT22;41079;52.856;6.534;2022-07-10T03:02:54;11.80;99.90
55207;DHT22;41079;52.856;6.534;2022-07-10T03:05:20;11.80;99.90
55207;DHT22;41079;52.856;6.534;2022-07-10T03:07:46;11.90;99.90
55207;DHT22;41079;52.856;6.534;2022-07-10T03:10:11;11.80;99.90
55207;DHT22;41079;52.856;6.534;2022-07-10T03:12:37;11.80;99.90
55207;DHT22;41079;52.856;6.534;2022-07-10T03:15:03;11.80;99.90
55207;DHT22;41079;52.856;6.534;2022-07-10T03:17:29;11.80;99.90
55207;DHT22;41079;52.856;6.534;2022-07-10T03:19:54;11.80;99.90
55207;DHT22;41079;52.856;6.534;2022-07-10T03:22:20;11.80;99.90
55207;DHT22;41079;52.856;6.534;2022-07-10T03:24:45;11.80;99.90
55207;DHT22;41079;52.856;6.534;2022-07-10T03:27:12;11.80;99.90
55207;DHT22;41079;52.856;6.534;2022-07-10T03:29:38;11.90;99.90
55207;DHT22;41079;52.856;6.534;2022-07-10T03:32:04;12.00;99.90
55207;DHT22;41079;52.856;6.534;2022-07-10T03:34:30;12.10;99.90
55207;DHT22;41079;52.856;6.534;2022-07-10T03:36:55;12.10;99.90
55207;DHT22;41079;52.856;6.534;2022-07-10T03:39:21;12.20;99.90
55207;DHT22;41079;52.856;6.534;2022-07-10T03:41:46;12.30;99.90
55207;DHT22;41079;52.856;6.534;2022-07-10T03:44:12;12.30;99.90
55207;DHT22;41079;52.856;6.534;2022-07-10T03:46:37;12.30;99.90
55207;DHT22;41079;52.856;6.534;2022-07-10T03:49:03;12.40;99.90
55207;DHT22;41079;52.856;6.534;2022-07-10T03:51:28;12.40;99.90
55207;DHT22;41079;52.856;6.534;2022-07-10T03:53:54;12.50;99.90
55207;DHT22;41079;52.856;6.534;2022-07-10T03:56:19;12.50;99.90
55207;DHT22;41079;52.856;6.534;2022-07-10T03:59:04;12.60;99.90
55207;DHT22;41079;52.856;6.534;2022-07-10T04:01:29;12.60;99.90
55207;DHT22;41079;52.856;6.534;2022-07-10T04:03:55;12.60;99.90
55207;DHT22;41079;52.856;6.534;2022-07-10T04:06:20;12.60;99.90
55207;DHT22;41079;52.856;6.534;2022-07-10T04:08:45;12.70;99.90
55207;DHT22;41079;52.856;6.534;2022-07-10T04:11:11;12.70;99.90
55207;DHT22;41079;52.856;6.534;2022-07-10T04:13:36;12.70;99.90
55207;DHT22;41079;52.856;6.534;2022-07-10T04:16:02;12.80;99.90
55207;DHT22;41079;52.856;6.534;2022-07-10T04:18:28;12.80;99.90
55207;DHT22;41079;52.856;6.534;2022-07-10T04:20:53;12.80;99.90
55207;DHT22;41079;52.856;6.534;2022-07-10T04:23:19;12.90;99.90
55207;DHT22;41079;52.856;6.534;2022-07-10T04:25:44;12.90;99.90
55207;DHT22;41079;52.856;6.534;2022-07-10T04:28:10;12.90;99.90
55207;DHT22;41079;52.856;6.534;2022-07-10T04:30:36;12.90;99.90
55207;DHT22;41079;52.856;6.534;2022-07-10T04:33:04;13.00;99.90
55207;DHT22;41079;52.856;6.534;2022-07-10T04:35:30;13.00;99.90
55207;DHT22;41079;52.856;6.534;2022-07-10T04:37:55;13.00;99.90
55207;DHT22;41079;52.856;6.534;2022-07-10T04:40:21;13.10;99.90
55207;DHT22;41079;52.856;6.534;2022-07-10T04:42:46;13.10;99.90
55207;DHT22;41079;52.856;6.534;2022-07-10T04:45:12;13.10;99.90
55207;DHT22;41079;52.856;6.534;2022-07-10T04:47:37;13.10;99.90
55207;DHT22;41079;52.856;6.534;2022-07-10T04:50:03;13.20;99.90
55207;DHT22;41079;52.856;6.534;2022-07-10T04:52:28;13.20;99.90
55207;DHT22;41079;52.856;6.534;2022-07-10T04:54:54;13.30;99.90
55207;DHT22;41079;52.856;6.534;2022-07-10T04:57:19;13.40;99.90
55207;DHT22;41079;52.856;6.534;2022-07-10T04:59:45;13.40;99.90
55207;DHT22;41079;52.856;6.534;2022-07-10T05:02:10;13.50;99.90
55207;DHT22;41079;52.856;6.534;2022-07-10T05:04:36;13.60;99.90
55207;DHT22;41079;52.856;6.534;2022-07-10T05:07:01;13.70;99.90
55207;DHT22;41079;52.856;6.534;2022-07-10T05:09:27;13.70;99.90
55207;DHT22;41079;52.856;6.534;2022-07-10T05:11:52;13.80;99.90
55207;DHT22;41079;52.856;6.534;2022-07-10T05:14:18;13.80;99.90
55207;DHT22;41079;52.856;6.534;2022-07-10T05:16:43;13.90;99.90
55207;DHT22;41079;52.856;6.534;2022-07-10T05:19:09;13.90;99.90
55207;DHT22;41079;52.856;6.534;2022-07-10T05:21:34;13.90;99.90
55207;DHT22;41079;52.856;6.534;2022-07-10T05:24:00;13.90;99.90
55207;DHT22;41079;52.856;6.534;2022-07-10T05:26:25;14.00;99.90
55207;DHT22;41079;52.856;6.534;2022-07-10T05:28:51;14.00;99.90
55207;DHT22;41079;52.856;6.534;2022-07-10T05:31:16;14.00;99.90
55207;DHT22;41079;52.856;6.534;2022-07-10T05:33:42;14.00;99.90
55207;DHT22;41079;52.856;6.534;2022-07-10T05:36:08;14.00;99.90
55207;DHT22;41079;52.856;6.534;2022-07-10T05:38:33;14.10;99.90
55207;DHT22;41079;52.856;6.534;2022-07-10T05:40:59;14.10;99.90
55207;DHT22;41079;52.856;6.534;2022-07-10T05:43:25;14.20;99.90
55207;DHT22;41079;52.856;6.534;2022-07-10T05:45:50;14.20;99.90
55207;DHT22;41079;52.856;6.534;2022-07-10T05:48:16;14.20;99.90
55207;DHT22;41079;52.856;6.534;2022-07-10T05:50:41;14.20;99.90
55207;DHT22;41079;52.856;6.534;2022-07-10T05:53:07;14.30;99.90
55207;DHT22;41079;52.856;6.534;2022-07-10T05:55:32;14.30;99.90
55207;DHT22;41079;52.856;6.534;2022-07-10T05:57:58;14.40;99.90
55207;DHT22;41079;52.856;6.534;2022-07-10T06:00:24;14.40;99.90
55207;DHT22;41079;52.856;6.534;2022-07-10T06:02:50;14.50;99.90
55207;DHT22;41079;52.856;6.534;2022-07-10T06:05:15;14.60;99.90
55207;DHT22;41079;52.856;6.534;2022-07-10T06:07:41;14.60;99.90
55207;DHT22;41079;52.856;6.534;2022-07-10T06:10:06;14.70;99.90
55207;DHT22;41079;52.856;6.534;2022-07-10T06:12:32;14.80;99.90
55207;DHT22;41079;52.856;6.534;2022-07-10T06:14:58;14.80;99.90
55207;DHT22;41079;52.856;6.534;2022-07-10T06:17:23;14.90;99.90
55207;DHT22;41079;52.856;6.534;2022-07-10T06:19:49;15.00;99.90
55207;DHT22;41079;52.856;6.534;2022-07-10T06:22:14;15.00;99.90
55207;DHT22;41079;52.856;6.534;2022-07-10T06:25:05;15.00;99.90
55207;DHT22;41079;52.856;6.534;2022-07-10T06:27:31;15.10;99.90
55207;DHT22;41079;52.856;6.534;2022-07-10T06:29:59;15.10;99.90
55207;DHT22;41079;52.856;6.534;2022-07-10T06:32:26;15.20;99.90
55207;DHT22;41079;52.856;6.534;2022-07-10T06:34:51;15.10;99.90
55207;DHT22;41079;52.856;6.534;2022-07-10T06:37:17;15.20;99.90
55207;DHT22;41079;52.856;6.534;2022-07-10T06:39:43;15.10;99.90
55207;DHT22;41079;52.856;6.534;2022-07-10T06:42:09;15.10;99.90
55207;DHT22;41079;52.856;6.534;2022-07-10T06:44:35;15.10;99.90
55207;DHT22;41079;52.856;6.534;2022-07-10T06:47:00;15.00;99.90
55207;DHT22;41079;52.856;6.534;2022-07-10T06:49:47;14.90;99.90
55207;DHT22;41079;52.856;6.534;2022-07-10T06:52:13;15.00;99.90
55207;DHT22;41079;52.856;6.534;2022-07-10T06:54:39;14.80;99.90
55207;DHT22;41079;52.856;6.534;2022-07-10T06:57:04;14.80;99.90
55207;DHT22;41079;52.856;6.534;2022-07-10T06:59:30;14.80;99.90
55207;DHT22;41079;52.856;6.534;2022-07-10T07:01:56;14.70;99.90
55207;DHT22;41079;52.856;6.534;2022-07-10T07:04:21;14.80;99.90
55207;DHT22;41079;52.856;6.534;2022-07-10T07:06:47;14.80;99.90
55207;DHT22;41079;52.856;6.534;2022-07-10T07:09:12;14.80;99.90
55207;DHT22;41079;52.856;6.534;2022-07-10T07:11:38;14.80;99.90
55207;DHT22;41079;52.856;6.534;2022-07-10T07:14:03;14.80;99.90
55207;DHT22;41079;52.856;6.534;2022-07-10T07:16:29;14.90;99.90
55207;DHT22;41079;52.856;6.534;2022-07-10T07:19:07;14.80;99.90
55207;DHT22;41079;52.856;6.534;2022-07-10T07:21:32;14.90;99.90
55207;DHT22;41079;52.856;6.534;2022-07-10T07:24:16;14.90;99.90
55207;DHT22;41079;52.856;6.534;2022-07-10T07:26:44;14.80;99.90
55207;DHT22;41079;52.856;6.534;2022-07-10T07:29:10;14.70;99.90
55207;DHT22;41079;52.856;6.534;2022-07-10T07:31:35;14.60;99.90
55207;DHT22;41079;52.856;6.534;2022-07-10T07:34:01;14.60;99.90
55207;DHT22;41079;52.856;6.534;2022-07-10T07:36:30;14.50;99.90
55207;DHT22;41079;52.856;6.534;2022-07-10T07:38:56;14.60;99.90
55207;DHT22;41079;52.856;6.534;2022-07-10T07:41:22;14.60;99.90
55207;DHT22;41079;52.856;6.534;2022-07-10T07:43:50;14.60;99.90
55207;DHT22;41079;52.856;6.534;2022-07-10T07:46:16;14.90;99.90
55207;DHT22;41079;52.856;6.534;2022-07-10T07:48:41;15.10;99.90
55207;DHT22;41079;52.856;6.534;2022-07-10T07:51:07;15.30;99.90
55207;DHT22;41079;52.856;6.534;2022-07-10T07:53:33;15.40;99.90
55207;DHT22;41079;52.856;6.534;2022-07-10T07:55:58;15.60;99.90
55207;DHT22;41079;52.856;6.534;2022-07-10T07:58:24;15.60;99.90
55207;DHT22;41079;52.856;6.534;2022-07-10T08:00:50;15.70;99.90
55207;DHT22;41079;52.856;6.534;2022-07-10T08:03:16;15.80;99.90
55207;DHT22;41079;52.856;6.534;2022-07-10T08:05:41;15.90;99.90
55207;DHT22;41079;52.856;6.534;2022-07-10T08:08:07;16.00;99.90
55207;DHT22;41079;52.856;6.534;2022-07-10T08:10:35;16.10;99.90
55207;DHT22;41079;52.856;6.534;2022-07-10T08:13:02;16.20;99.90
55207;DHT22;41079;52.856;6.534;2022-07-10T08:15:28;16.10;99.90
55207;DHT22;41079;52.856;6.534;2022-07-10T08:17:55;16.10;99.90
55207;DHT22;41079;52.856;6.534;2022-07-10T08:20:21;16.10;99.90
55207;DHT22;41079;52.856;6.534;2022-07-10T08:22:47;16.00;99.90
55207;DHT22;41079;52.856;6.534;2022-07-10T08:25:13;16.00;99.90
55207;DHT22;41079;52.856;6.534;2022-07-10T08:27:39;15.90;99.90
55207;DHT22;41079;52.856;6.534;2022-07-10T08:30:08;15.80;99.90
55207;DHT22;41079;52.856;6.534;2022-07-10T08:32:35;15.70;99.90
55207;DHT22;41079;52.856;6.534;2022-07-10T08:35:01;15.60;99.90
55207;DHT22;41079;52.856;6.534;2022-07-10T08:37:27;15.50;99.90
55207;DHT22;41079;52.856;6.534;2022-07-10T08:39:52;15.40;99.90
55207;DHT22;41079;52.856;6.534;2022-07-10T08:42:18;15.30;99.90
55207;DHT22;41079;52.856;6.534;2022-07-10T08:44:43;15.20;99.90
55207;DHT22;41079;52.856;6.534;2022-07-10T08:47:09;15.20;99.90
55207;DHT22;41079;52.856;6.534;2022-07-10T08:49:37;15.20;99.90
55207;DHT22;41079;52.856;6.534;2022-07-10T08:54:28;15.20;99.90
55207;DHT22;41079;52.856;6.534;2022-07-10T08:56:56;15.20;99.90
55207;DHT22;41079;52.856;6.534;2022-07-10T08:59:21;15.20;99.90
55207;DHT22;41079;52.856;6.534;2022-07-10T09:01:50;15.20;99.90
55207;DHT22;41079;52.856;6.534;2022-07-10T09:04:16;15.20;99.90
55207;DHT22;41079;52.856;6.534;2022-07-10T09:06:43;15.30;99.90
55207;DHT22;41079;52.856;6.534;2022-07-10T09:09:08;15.40;99.90
55207;DHT22;41079;52.856;6.534;2022-07-10T09:11:38;15.50;99.90
55207;DHT22;41079;52.856;6.534;2022-07-10T09:14:06;15.60;99.90
55207;DHT22;41079;52.856;6.534;2022-07-10T09:16:45;15.70;99.90
55207;DHT22;41079;52.856;6.534;2022-07-10T09:19:18;15.90;99.90
55207;DHT22;41079;52.856;6.534;2022-07-10T09:21:45;16.00;99.90
55207;DHT22;41079;52.856;6.534;2022-07-10T09:24:11;16.20;99.90
55207;DHT22;41079;52.856;6.534;2022-07-10T09:26:37;16.50;99.90
55207;DHT22;41079;52.856;6.534;2022-07-10T09:29:10;16.50;99.90
55207;DHT22;41079;52.856;6.534;2022-07-10T09:31:52;16.70;99.90
55207;DHT22;41079;52.856;6.534;2022-07-10T09:34:34;16.80;99.90
55207;DHT22;41079;52.856;6.534;2022-07-10T09:37:16;16.80;99.90
55207;DHT22;41079;52.856;6.534;2022-07-10T09:39:51;16.80;99.90
55207;DHT22;41079;52.856;6.534;2022-07-10T09:42:26;16.70;99.90
55207;DHT22;41079;52.856;6.534;2022-07-10T09:44:52;16.80;99.90
55207;DHT22;41079;52.856;6.534;2022-07-10T09:47:21;16.80;99.90
55207;DHT22;41079;52.856;6.534;2022-07-10T09:49:47;16.80;99.90
55207;DHT22;41079;52.856;6.534;2022-07-10T09:52:13;16.70;99.90
55207;DHT22;41079;52.856;6.534;2022-07-10T09:54:39;16.70;99.90
55207;DHT22;41079;52.856;6.534;2022-07-10T09:57:04;16.80;99.90
55207;DHT22;41079;52.856;6.534;2022-07-10T09:59:33;16.90;99.90
55207;DHT22;41079;52.856;6.534;2022-07-10T10:01:59;17.00;99.90
55207;DHT22;41079;52.856;6.534;2022-07-10T10:04:27;17.10;99.90
55207;DHT22;41079;52.856;6.534;2022-07-10T10:06:58;17.10;99.90
55207;DHT22;41079;52.856;6.534;2022-07-10T10:11:57;16.80;99.90
55207;DHT22;41079;52.856;6.534;2022-07-10T10:14:26;16.50;99.90
55207;DHT22;41079;52.856;6.534;2022-07-10T10:16:52;16.30;99.90
55207;DHT22;41079;52.856;6.534;2022-07-10T10:19:19;16.30;99.90
55207;DHT22;41079;52.856;6.534;2022-07-10T10:22:04;16.30;99.90
55207;DHT22;41079;52.856;6.534;2022-07-10T10:24:33;16.50;99.90
55207;DHT22;41079;52.856;6.534;2022-07-10T10:26:59;16.60;99.90
55207;DHT22;41079;52.856;6.534;2022-07-10T10:29:25;16.60;99.90
55207;DHT22;41079;52.856;6.534;2022-07-10T10:32:12;16.50;99.90
55207;DHT22;41079;52.856;6.534;2022-07-10T10:39:56;16.40;99.90
55207;DHT22;41079;52.856;6.534;2022-07-10T10:42:38;16.40;99.90
55207;DHT22;41079;52.856;6.534;2022-07-10T10:45:23;16.50;99.90
55207;DHT22;41079;52.856;6.534;2022-07-10T10:48:03;16.60;99.90
55207;DHT22;41079;52.856;6.534;2022-07-10T10:50:42;16.70;99.90
55207;DHT22;41079;52.856;6.534;2022-07-10T10:53:20;16.90;99.90
55207;DHT22;41079;52.856;6.534;2022-07-10T10:58:40;17.50;99.90
55207;DHT22;41079;52.856;6.534;2022-07-10T11:09:26;18.20;99.90
55207;DHT22;41079;52.856;6.534;2022-07-10T11:12:13;18.30;99.90
55207;DHT22;41079;52.856;6.534;2022-07-10T11:14:39;18.60;99.90
55207;DHT22;41079;52.856;6.534;2022-07-10T11:17:08;19.00;99.90
55207;DHT22;41079;52.856;6.534;2022-07-10T11:19:34;18.90;99.90
55207;DHT22;41079;52.856;6.534;2022-07-10T11:29:56;17.90;99.90
55207;DHT22;41079;52.856;6.534;2022-07-10T11:32:21;17.80;99.90
55207;DHT22;41079;52.856;6.534;2022-07-10T11:34:47;18.10;99.90
55207;DHT22;41079;52.856;6.534;2022-07-10T11:37:14;18.20;99.90
55207;DHT22;41079;52.856;6.534;2022-07-10T11:39:40;18.50;99.90
55207;DHT22;41079;52.856;6.534;2022-07-10T11:42:23;18.60;99.90
55207;DHT22;41079;52.856;6.534;2022-07-10T11:44:58;18.60;99.90
55207;DHT22;41079;52.856;6.534;2022-07-10T11:47:25;18.40;99.90
55207;DHT22;41079;52.856;6.534;2022-07-10T11:49:50;18.20;99.90
55207;DHT22;41079;52.856;6.534;2022-07-10T11:52:16;17.80;99.90
55207;DHT22;41079;52.856;6.534;2022-07-10T11:54:41;17.60;99.90
55207;DHT22;41079;52.856;6.534;2022-07-10T11:57:09;17.40;99.90
55207;DHT22;41079;52.856;6.534;2022-07-10T11:59:36;17.50;99.90
55207;DHT22;41079;52.856;6.534;2022-07-10T12:02:04;17.50;99.90
55207;DHT22;41079;52.856;6.534;2022-07-10T12:04:30;17.70;99.90
55207;DHT22;41079;52.856;6.534;2022-07-10T12:06:56;17.70;99.90
55207;DHT22;41079;52.856;6.534;2022-07-10T12:09:22;17.60;99.90
55207;DHT22;41079;52.856;6.534;2022-07-10T12:11:58;17.50;99.90
55207;DHT22;41079;52.856;6.534;2022-07-10T12:14:25;17.40;99.90
55207;DHT22;41079;52.856;6.534;2022-07-10T12:16:51;17.10;99.90
55207;DHT22;41079;52.856;6.534;2022-07-10T12:19:21;16.90;99.90
55207;DHT22;41079;52.856;6.534;2022-07-10T12:21:47;16.80;99.90
55207;DHT22;41079;52.856;6.534;2022-07-10T12:24:13;16.70;99.90
55207;DHT22;41079;52.856;6.534;2022-07-10T12:26:41;16.70;99.90
55207;DHT22;41079;52.856;6.534;2022-07-10T12:29:11;16.70;99.90
55207;DHT22;41079;52.856;6.534;2022-07-10T12:31:37;16.80;99.90
55207;DHT22;41079;52.856;6.534;2022-07-10T12:34:04;16.90;99.90
55207;DHT22;41079;52.856;6.534;2022-07-10T12:36:49;17.00;99.90
55207;DHT22;41079;52.856;6.534;2022-07-10T12:39:19;17.10;99.90
55207;DHT22;41079;52.856;6.534;2022-07-10T12:42:01;17.20;99.90
55207;DHT22;41079;52.856;6.534;2022-07-10T12:47:05;17.30;99.90
55207;DHT22;41079;52.856;6.534;2022-07-10T12:52:37;17.40;99.90
55207;DHT22;41079;52.856;6.534;2022-07-10T12:55:15;17.50;99.90
55207;DHT22;41079;52.856;6.534;2022-07-10T13:00:11;17.40;99.90
55207;DHT22;41079;52.856;6.534;2022-07-10T13:02:39;17.50;99.90
55207;DHT22;41079;52.856;6.534;2022-07-10T13:05:05;17.60;99.90
55207;DHT22;41079;52.856;6.534;2022-07-10T13:07:31;17.60;99.90
55207;DHT22;41079;52.856;6.534;2022-07-10T13:10:01;17.80;99.90
55207;DHT22;41079;52.856;6.534;2022-07-10T13:12:30;18.00;99.90
55207;DHT22;41079;52.856;6.534;2022-07-10T13:14:56;18.30;99.90
55207;DHT22;41079;52.856;6.534;2022-07-10T13:17:22;18.70;99.90
55207;DHT22;41079;52.856;6.534;2022-07-10T13:19:49;19.00;99.90
55207;DHT22;41079;52.856;6.534;2022-07-10T13:22:15;19.00;99.90
55207;DHT22;41079;52.856;6.534;2022-07-10T13:24:41;18.80;99.90
55207;DHT22;41079;52.856;6.534;2022-07-10T13:27:07;18.50;99.90
55207;DHT22;41079;52.856;6.534;2022-07-10T13:29:33;18.40;99.90
55207;DHT22;41079;52.856;6.534;2022-07-10T13:31:59;18.30;99.90
55207;DHT22;41079;52.856;6.534;2022-07-10T13:34:24;18.20;99.90
55207;DHT22;41079;52.856;6.534;2022-07-10T13:36:50;18.20;99.90
55207;DHT22;41079;52.856;6.534;2022-07-10T13:39:16;18.30;99.90
55207;DHT22;41079;52.856;6.534;2022-07-10T13:41:42;18.40;99.90
55207;DHT22;41079;52.856;6.534;2022-07-10T13:44:07;18.30;99.90
55207;DHT22;41079;52.856;6.534;2022-07-10T13:46:33;18.20;99.90
55207;DHT22;41079;52.856;6.534;2022-07-10T13:48:59;18.30;99.90
55207;DHT22;41079;52.856;6.534;2022-07-10T13:51:24;18.20;99.90
55207;DHT22;41079;52.856;6.534;2022-07-10T13:53:50;18.10;99.90
55207;DHT22;41079;52.856;6.534;2022-07-10T13:56:15;18.10;99.90
55207;DHT22;41079;52.856;6.534;2022-07-10T13:58:42;18.20;99.90
55207;DHT22;41079;52.856;6.534;2022-07-10T14:01:08;18.10;99.90
55207;DHT22;41079;52.856;6.534;2022-07-10T14:03:33;18.10;99.90
55207;DHT22;41079;52.856;6.534;2022-07-10T14:05:58;18.10;99.90
55207;DHT22;41079;52.856;6.534;2022-07-10T14:08:24;18.20;99.90
55207;DHT22;41079;52.856;6.534;2022-07-10T14:10:50;18.30;99.90
55207;DHT22;41079;52.856;6.534;2022-07-10T14:13:15;18.40;99.90
55207;DHT22;41079;52.856;6.534;2022-07-10T14:15:41;18.50;99.90
55207;DHT22;41079;52.856;6.534;2022-07-10T14:18:10;18.70;99.90
55207;DHT22;41079;52.856;6.534;2022-07-10T14:20:35;18.90;99.90
55207;DHT22;41079;52.856;6.534;2022-07-10T14:23:21;19.10;99.90
55207;DHT22;41079;52.856;6.534;2022-07-10T14:25:47;19.20;99.90
55207;DHT22;41079;52.856;6.534;2022-07-10T14:28:13;19.40;99.90
55207;DHT22;41079;52.856;6.534;2022-07-10T14:30:39;19.50;99.90
55207;DHT22;41079;52.856;6.534;2022-07-10T14:33:05;19.50;99.90
55207;DHT22;41079;52.856;6.534;2022-07-10T14:35:31;19.60;99.90
55207;DHT22;41079;52.856;6.534;2022-07-10T14:37:59;19.50;99.90
55207;DHT22;41079;52.856;6.534;2022-07-10T14:40:24;19.40;99.90
55207;DHT22;41079;52.856;6.534;2022-07-10T14:42:50;19.40;99.90
55207;DHT22;41079;52.856;6.534;2022-07-10T14:45:15;19.30;99.90
55207;DHT22;41079;52.856;6.534;2022-07-10T14:47:41;19.30;99.90
55207;DHT22;41079;52.856;6.534;2022-07-10T14:50:07;19.30;99.90
55207;DHT22;41079;52.856;6.534;2022-07-10T14:52:35;19.40;99.90
55207;DHT22;41079;52.856;6.534;2022-07-10T14:55:03;19.30;99.90
55207;DHT22;41079;52.856;6.534;2022-07-10T14:57:29;19.20;99.90
55207;DHT22;41079;52.856;6.534;2022-07-10T14:59:54;19.10;99.90
55207;DHT22;41079;52.856;6.534;2022-07-10T15:02:20;19.10;99.90
55207;DHT22;41079;52.856;6.534;2022-07-10T15:04:45;19.10;99.90
55207;DHT22;41079;52.856;6.534;2022-07-10T15:07:11;19.30;99.90
55207;DHT22;41079;52.856;6.534;2022-07-10T15:09:36;19.30;99.90
55207;DHT22;41079;52.856;6.534;2022-07-10T15:12:05;19.40;99.90
55207;DHT22;41079;52.856;6.534;2022-07-10T15:14:30;19.30;99.90
55207;DHT22;41079;52.856;6.534;2022-07-10T15:16:56;19.20;99.90
55207;DHT22;41079;52.856;6.534;2022-07-10T15:19:21;19.20;99.90
55207;DHT22;41079;52.856;6.534;2022-07-10T15:21:47;19.20;99.90
55207;DHT22;41079;52.856;6.534;2022-07-10T15:24:12;19.20;99.90
55207;DHT22;41079;52.856;6.534;2022-07-10T15:26:41;19.20;99.90
55207;DHT22;41079;52.856;6.534;2022-07-10T15:29:06;19.20;99.90
55207;DHT22;41079;52.856;6.534;2022-07-10T15:31:32;19.10;99.90
55207;DHT22;41079;52.856;6.534;2022-07-10T15:33:57;19.10;99.90
55207;DHT22;41079;52.856;6.534;2022-07-10T15:36:23;19.10;99.90
55207;DHT22;41079;52.856;6.534;2022-07-10T15:38:48;19.10;99.90
55207;DHT22;41079;52.856;6.534;2022-07-10T15:41:14;19.10;99.90
55207;DHT22;41079;52.856;6.534;2022-07-10T15:43:39;19.00;99.90
55207;DHT22;41079;52.856;6.534;2022-07-10T15:46:07;19.00;99.90
55207;DHT22;41079;52.856;6.534;2022-07-10T15:48:33;19.00;99.90
55207;DHT22;41079;52.856;6.534;2022-07-10T15:50:58;19.00;99.90
55207;DHT22;41079;52.856;6.534;2022-07-10T15:53:24;19.10;99.90
55207;DHT22;41079;52.856;6.534;2022-07-10T15:55:49;19.20;99.90
55207;DHT22;41079;52.856;6.534;2022-07-10T15:58:15;19.20;99.90
55207;DHT22;41079;52.856;6.534;2022-07-10T16:00:41;19.20;99.90
55207;DHT22;41079;52.856;6.534;2022-07-10T16:03:07;19.20;99.90
55207;DHT22;41079;52.856;6.534;2022-07-10T16:05:35;19.10;99.90